sensor_id;sensor_type;location;lat;lon;timestamp;P1;durP1;ratioP1;P2;durP2;ratioP2
24173;SDS011;12324;48.146;11.502;2023-04-28T00:01:36;8.77;;;3.10;;
24173;SDS011;12324;48.146;11.502;2023-04-28T00:04:03;8.88;;;4.47;;
24173;SDS011;12324;48.146;11.502;2023-04-28T00:06:30;11.45;;;4.35;;
24173;SDS011;12324;48.146;11.502;2023-04-28T00:08:57;9.35;;;3.90;;
24173;SDS011;12324;48.146;11.502;2023-04-28T00:11:24;9.15;;;4.75;;
24173;SDS011;12324;48.146;11.502;2023-04-28T00:13:50;9.27;;;3.83;;
24173;SDS011;12324;48.146;11.502;2023-04-28T00:16:17;9.10;;;4.07;;
24173;SDS011;12324;48.146;11.502;2023-04-28T00:18:44;6.80;;;3.50;;
24173;SDS011;12324;48.146;11.502;2023-04-28T00:21:10;8.10;;;3.78;;
24173;SDS011;12324;48.146;11.502;2023-04-28T00:23:37;6.70;;;3.53;;
24173;SDS011;12324;48.146;11.502;2023-04-28T00:26:04;8.57;;;3.97;;
24173;SDS011;12324;48.146;11.502;2023-04-28T00:28:31;7.97;;;3.53;;
24173;SDS011;12324;48.146;11.502;2023-04-28T00:31:00;11.75;;;3.35;;
24173;SDS011;12324;48.146;11.502;2023-04-28T00:33:27;8.88;;;3.22;;
24173;SDS011;12324;48.146;11.502;2023-04-28T00:36:03;8.57;;;3.83;;
24173;SDS011;12324;48.146;11.502;2023-04-28T00:38:30;8.20;;;3.85;;
24173;SDS011;12324;48.146;11.502;2023-04-28T00:40:56;8.93;;;3.90;;
24173;SDS011;12324;48.146;11.502;2023-04-28T00:43:23;12.73;;;4.00;;
24173;SDS011;12324;48.146;11.502;2023-04-28T00:45:50;9.52;;;4.18;;
24173;SDS011;12324;48.146;11.502;2023-04-28T00:48:17;9.70;;;3.75;;
24173;SDS011;12324;48.146;11.502;2023-04-28T00:50:45;8.68;;;3.97;;
24173;SDS011;12324;48.146;11.502;2023-04-28T00:53:12;9.25;;;3.78;;
24173;SDS011;12324;48.146;11.502;2023-04-28T00:55:39;8.23;;;3.53;;
24173;SDS011;12324;48.146;11.502;2023-04-28T00:58:06;9.60;;;3.55;;
24173;SDS011;12324;48.146;11.502;2023-04-28T01:00:33;11.27;;;4.00;;
24173;SDS011;12324;48.146;11.502;2023-04-28T01:03:00;9.73;;;4.15;;
24173;SDS011;12324;48.146;11.502;2023-04-28T01:05:28;9.98;;;3.70;;
24173;SDS011;12324;48.146;11.502;2023-04-28T01:07:55;8.57;;;3.80;;
24173;SDS011;12324;48.146;11.502;2023-04-28T01:10:22;9.77;;;3.92;;
24173;SDS011;12324;48.146;11.502;2023-04-28T01:12:48;10.00;;;3.90;;
24173;SDS011;12324;48.146;11.502;2023-04-28T01:15:16;8.20;;;3.63;;
24173;SDS011;12324;48.146;11.502;2023-04-28T01:17:44;8.10;;;3.70;;
24173;SDS011;12324;48.146;11.502;2023-04-28T01:20:12;8.55;;;4.25;;
24173;SDS011;12324;48.146;11.502;2023-04-28T01:22:39;8.77;;;3.97;;
24173;SDS011;12324;48.146;11.502;2023-04-28T01:25:06;7.20;;;3.55;;
24173;SDS011;12324;48.146;11.502;2023-04-28T01:27:33;7.63;;;3.55;;
24173;SDS011;12324;48.146;11.502;2023-04-28T01:30:00;6.78;;;3.42;;
24173;SDS011;12324;48.146;11.502;2023-04-28T01:32:27;9.00;;;3.95;;
24173;SDS011;12324;48.146;11.502;2023-04-28T01:34:54;13.18;;;3.97;;
24173;SDS011;12324;48.146;11.502;2023-04-28T01:37:20;8.73;;;3.67;;
24173;SDS011;12324;48.146;11.502;2023-04-28T01:39:47;8.52;;;3.55;;
24173;SDS011;12324;48.146;11.502;2023-04-28T01:42:14;9.27;;;3.65;;
24173;SDS011;12324;48.146;11.502;2023-04-28T01:44:40;11.73;;;4.00;;
24173;SDS011;12324;48.146;11.502;2023-04-28T01:47:07;9.15;;;3.65;;
24173;SDS011;12324;48.146;11.502;2023-04-28T01:49:34;6.05;;;3.08;;
24173;SDS011;12324;48.146;11.502;2023-04-28T01:52:01;7.05;;;3.13;;
24173;SDS011;12324;48.146;11.502;2023-04-28T01:54:27;9.52;;;3.53;;
24173;SDS011;12324;48.146;11.502;2023-04-28T01:56:54;7.70;;;3.75;;
24173;SDS011;12324;48.146;11.502;2023-04-28T01:59:21;6.10;;;3.08;;
24173;SDS011;12324;48.146;11.502;2023-04-28T02:01:50;7.82;;;3.45;;
24173;SDS011;12324;48.146;11.502;2023-04-28T02:04:17;10.00;;;3.60;;
24173;SDS011;12324;48.146;11.502;2023-04-28T02:06:44;11.32;;;3.70;;
24173;SDS011;12324;48.146;11.502;2023-04-28T02:09:10;9.63;;;3.58;;
24173;SDS011;12324;48.146;11.502;2023-04-28T02:11:37;10.57;;;3.95;;
24173;SDS011;12324;48.146;11.502;2023-04-28T02:14:04;5.70;;;3.17;;
24173;SDS011;12324;48.146;11.502;2023-04-28T02:16:31;8.65;;;3.50;;
24173;SDS011;12324;48.146;11.502;2023-04-28T02:18:58;6.30;;;3.00;;
24173;SDS011;12324;48.146;11.502;2023-04-28T02:21:25;6.40;;;3.38;;
24173;SDS011;12324;48.146;11.502;2023-04-28T02:23:52;8.40;;;3.20;;
24173;SDS011;12324;48.146;11.502;2023-04-28T02:26:19;6.65;;;3.05;;
24173;SDS011;12324;48.146;11.502;2023-04-28T02:28:46;5.85;;;2.88;;
24173;SDS011;12324;48.146;11.502;2023-04-28T02:31:14;4.82;;;2.92;;
24173;SDS011;12324;48.146;11.502;2023-04-28T02:33:41;6.55;;;3.10;;
24173;SDS011;12324;48.146;11.502;2023-04-28T02:36:08;7.22;;;2.70;;
24173;SDS011;12324;48.146;11.502;2023-04-28T02:38:35;5.03;;;2.88;;
24173;SDS011;12324;48.146;11.502;2023-04-28T02:41:03;7.65;;;3.17;;
24173;SDS011;12324;48.146;11.502;2023-04-28T02:43:31;6.43;;;3.15;;
24173;SDS011;12324;48.146;11.502;2023-04-28T02:45:59;7.95;;;3.60;;
24173;SDS011;12324;48.146;11.502;2023-04-28T02:48:26;4.95;;;2.83;;
24173;SDS011;12324;48.146;11.502;2023-04-28T02:50:53;7.88;;;3.38;;
24173;SDS011;12324;48.146;11.502;2023-04-28T02:53:20;8.95;;;3.50;;
24173;SDS011;12324;48.146;11.502;2023-04-28T02:55:47;8.00;;;3.03;;
24173;SDS011;12324;48.146;11.502;2023-04-28T02:58:14;5.40;;;2.88;;
24173;SDS011;12324;48.146;11.502;2023-04-28T03:00:43;6.82;;;3.53;;
24173;SDS011;12324;48.146;11.502;2023-04-28T03:03:10;8.65;;;3.25;;
24173;SDS011;12324;48.146;11.502;2023-04-28T03:05:37;12.13;;;4.25;;
24173;SDS011;12324;48.146;11.502;2023-04-28T03:08:04;7.50;;;3.33;;
24173;SDS011;12324;48.146;11.502;2023-04-28T03:10:31;7.93;;;3.25;;
24173;SDS011;12324;48.146;11.502;2023-04-28T03:12:58;9.00;;;3.70;;
24173;SDS011;12324;48.146;11.502;2023-04-28T03:15:24;7.70;;;3.90;;
24173;SDS011;12324;48.146;11.502;2023-04-28T03:17:51;6.88;;;3.35;;
24173;SDS011;12324;48.146;11.502;2023-04-28T03:20:18;8.65;;;3.30;;
24173;SDS011;12324;48.146;11.502;2023-04-28T03:22:45;5.82;;;3.00;;
24173;SDS011;12324;48.146;11.502;2023-04-28T03:25:11;6.32;;;3.17;;
24173;SDS011;12324;48.146;11.502;2023-04-28T03:27:38;5.90;;;3.13;;
24173;SDS011;12324;48.146;11.502;2023-04-28T03:30:05;6.03;;;3.35;;
24173;SDS011;12324;48.146;11.502;2023-04-28T03:32:32;6.20;;;3.38;;
24173;SDS011;12324;48.146;11.502;2023-04-28T03:34:59;8.40;;;3.40;;
24173;SDS011;12324;48.146;11.502;2023-04-28T03:37:25;7.47;;;3.25;;
24173;SDS011;12324;48.146;11.502;2023-04-28T03:39:52;8.52;;;3.50;;
24173;SDS011;12324;48.146;11.502;2023-04-28T03:42:19;7.13;;;3.30;;
24173;SDS011;12324;48.146;11.502;2023-04-28T03:44:45;6.75;;;2.70;;
24173;SDS011;12324;48.146;11.502;2023-04-28T03:47:12;6.18;;;3.28;;
24173;SDS011;12324;48.146;11.502;2023-04-28T03:49:39;9.10;;;3.53;;
24173;SDS011;12324;48.146;11.502;2023-04-28T03:52:06;6.05;;;3.25;;
24173;SDS011;12324;48.146;11.502;2023-04-28T03:54:32;7.10;;;3.25;;
24173;SDS011;12324;48.146;11.502;2023-04-28T03:56:59;7.72;;;3.40;;
24173;SDS011;12324;48.146;11.502;2023-04-28T03:59:26;8.75;;;3.33;;
24173;SDS011;12324;48.146;11.502;2023-04-28T04:01:53;5.93;;;2.67;;
24173;SDS011;12324;48.146;11.502;2023-04-28T04:04:20;5.95;;;2.95;;
24173;SDS011;12324;48.146;11.502;2023-04-28T04:06:47;7.28;;;3.38;;
24173;SDS011;12324;48.146;11.502;2023-04-28T04:09:14;7.35;;;3.47;;
24173;SDS011;12324;48.146;11.502;2023-04-28T04:11:41;11.60;;;4.15;;
24173;SDS011;12324;48.146;11.502;2023-04-28T04:14:07;6.65;;;3.13;;
24173;SDS011;12324;48.146;11.502;2023-04-28T04:16:34;5.82;;;3.20;;
24173;SDS011;12324;48.146;11.502;2023-04-28T04:19:01;7.50;;;3.33;;
24173;SDS011;12324;48.146;11.502;2023-04-28T04:21:28;5.85;;;2.95;;
24173;SDS011;12324;48.146;11.502;2023-04-28T04:23:56;6.78;;;3.58;;
24173;SDS011;12324;48.146;11.502;2023-04-28T04:26:23;11.18;;;3.90;;
24173;SDS011;12324;48.146;11.502;2023-04-28T04:28:50;5.25;;;3.17;;
24173;SDS011;12324;48.146;11.502;2023-04-28T04:31:17;7.90;;;3.63;;
24173;SDS011;12324;48.146;11.502;2023-04-28T04:33:47;9.82;;;4.10;;
24173;SDS011;12324;48.146;11.502;2023-04-28T04:36:14;7.85;;;3.50;;
24173;SDS011;12324;48.146;11.502;2023-04-28T04:38:41;7.50;;;3.55;;
24173;SDS011;12324;48.146;11.502;2023-04-28T04:41:07;8.60;;;3.88;;
24173;SDS011;12324;48.146;11.502;2023-04-28T04:43:34;8.73;;;3.42;;
24173;SDS011;12324;48.146;11.502;2023-04-28T04:46:01;7.80;;;3.17;;
24173;SDS011;12324;48.146;11.502;2023-04-28T04:48:29;9.10;;;3.80;;
24173;SDS011;12324;48.146;11.502;2023-04-28T04:50:55;6.43;;;3.08;;
24173;SDS011;12324;48.146;11.502;2023-04-28T04:53:22;7.40;;;3.25;;
24173;SDS011;12324;48.146;11.502;2023-04-28T04:55:49;7.40;;;3.70;;
24173;SDS011;12324;48.146;11.502;2023-04-28T04:58:16;7.72;;;3.92;;
24173;SDS011;12324;48.146;11.502;2023-04-28T05:00:42;6.65;;;3.40;;
24173;SDS011;12324;48.146;11.502;2023-04-28T05:03:09;7.40;;;3.75;;
24173;SDS011;12324;48.146;11.502;2023-04-28T05:05:37;9.02;;;3.30;;
24173;SDS011;12324;48.146;11.502;2023-04-28T05:08:03;7.85;;;3.88;;
24173;SDS011;12324;48.146;11.502;2023-04-28T05:10:31;9.50;;;3.97;;
24173;SDS011;12324;48.146;11.502;2023-04-28T05:12:58;6.50;;;3.50;;
24173;SDS011;12324;48.146;11.502;2023-04-28T05:15:24;5.43;;;3.42;;
24173;SDS011;12324;48.146;11.502;2023-04-28T05:17:51;7.60;;;3.25;;
24173;SDS011;12324;48.146;11.502;2023-04-28T05:20:18;10.60;;;3.90;;
24173;SDS011;12324;48.146;11.502;2023-04-28T05:22:44;8.63;;;3.45;;
24173;SDS011;12324;48.146;11.502;2023-04-28T05:25:11;6.20;;;3.13;;
24173;SDS011;12324;48.146;11.502;2023-04-28T05:27:38;6.53;;;3.17;;
24173;SDS011;12324;48.146;11.502;2023-04-28T05:30:06;4.95;;;3.00;;
24173;SDS011;12324;48.146;11.502;2023-04-28T05:32:34;6.45;;;3.20;;
24173;SDS011;12324;48.146;11.502;2023-04-28T05:35:01;6.70;;;2.92;;
24173;SDS011;12324;48.146;11.502;2023-04-28T05:37:28;6.63;;;2.92;;
24173;SDS011;12324;48.146;11.502;2023-04-28T05:39:55;9.55;;;3.10;;
24173;SDS011;12324;48.146;11.502;2023-04-28T05:42:21;8.00;;;3.38;;
24173;SDS011;12324;48.146;11.502;2023-04-28T05:44:48;6.97;;;3.00;;
24173;SDS011;12324;48.146;11.502;2023-04-28T05:47:14;8.15;;;3.60;;
24173;SDS011;12324;48.146;11.502;2023-04-28T05:49:41;8.57;;;3.35;;
24173;SDS011;12324;48.146;11.502;2023-04-28T05:52:08;6.63;;;3.20;;
24173;SDS011;12324;48.146;11.502;2023-04-28T05:54:35;8.07;;;3.63;;
24173;SDS011;12324;48.146;11.502;2023-04-28T05:57:01;7.55;;;3.30;;
24173;SDS011;12324;48.146;11.502;2023-04-28T05:59:28;8.52;;;3.70;;
24173;SDS011;12324;48.146;11.502;2023-04-28T06:01:56;11.05;;;4.07;;
24173;SDS011;12324;48.146;11.502;2023-04-28T06:04:23;9.43;;;4.00;;
24173;SDS011;12324;48.146;11.502;2023-04-28T06:06:51;11.50;;;4.10;;
24173;SDS011;12324;48.146;11.502;2023-04-28T06:09:18;10.80;;;3.78;;
24173;SDS011;12324;48.146;11.502;2023-04-28T06:11:45;11.20;;;4.22;;
24173;SDS011;12324;48.146;11.502;2023-04-28T06:14:12;7.18;;;3.45;;
24173;SDS011;12324;48.146;11.502;2023-04-28T06:16:39;8.98;;;3.53;;
24173;SDS011;12324;48.146;11.502;2023-04-28T06:19:06;8.15;;;3.00;;
24173;SDS011;12324;48.146;11.502;2023-04-28T06:21:33;6.57;;;3.25;;
24173;SDS011;12324;48.146;11.502;2023-04-28T06:24:00;7.68;;;2.83;;
24173;SDS011;12324;48.146;11.502;2023-04-28T06:26:27;7.28;;;3.17;;
24173;SDS011;12324;48.146;11.502;2023-04-28T06:28:54;7.30;;;3.22;;
24173;SDS011;12324;48.146;11.502;2023-04-28T06:31:20;5.82;;;2.85;;
24173;SDS011;12324;48.146;11.502;2023-04-28T06:33:47;5.30;;;2.80;;
24173;SDS011;12324;48.146;11.502;2023-04-28T06:36:14;6.03;;;2.80;;
24173;SDS011;12324;48.146;11.502;2023-04-28T06:38:43;6.03;;;2.80;;
24173;SDS011;12324;48.146;11.502;2023-04-28T06:41:10;6.18;;;2.85;;
24173;SDS011;12324;48.146;11.502;2023-04-28T06:43:38;5.72;;;2.67;;
24173;SDS011;12324;48.146;11.502;2023-04-28T06:46:05;5.50;;;2.60;;
24173;SDS011;12324;48.146;11.502;2023-04-28T06:48:33;7.57;;;2.88;;
24173;SDS011;12324;48.146;11.502;2023-04-28T06:50:59;3.80;;;2.45;;
24173;SDS011;12324;48.146;11.502;2023-04-28T06:53:26;9.80;;;2.75;;
24173;SDS011;12324;48.146;11.502;2023-04-28T06:55:53;4.75;;;2.47;;
24173;SDS011;12324;48.146;11.502;2023-04-28T06:58:20;7.65;;;2.50;;
24173;SDS011;12324;48.146;11.502;2023-04-28T07:00:46;6.78;;;2.22;;
24173;SDS011;12324;48.146;11.502;2023-04-28T07:03:13;4.63;;;2.08;;
24173;SDS011;12324;48.146;11.502;2023-04-28T07:05:40;5.25;;;2.00;;
24173;SDS011;12324;48.146;11.502;2023-04-28T07:08:07;3.00;;;1.90;;
24173;SDS011;12324;48.146;11.502;2023-04-28T07:10:33;3.53;;;1.60;;
24173;SDS011;12324;48.146;11.502;2023-04-28T07:13:00;3.63;;;2.00;;
24173;SDS011;12324;48.146;11.502;2023-04-28T07:15:27;2.53;;;1.55;;
24173;SDS011;12324;48.146;11.502;2023-04-28T07:17:54;3.65;;;1.73;;
24173;SDS011;12324;48.146;11.502;2023-04-28T07:20:20;2.67;;;1.70;;
24173;SDS011;12324;48.146;11.502;2023-04-28T07:22:47;4.18;;;2.22;;
24173;SDS011;12324;48.146;11.502;2023-04-28T07:25:14;5.10;;;2.05;;
24173;SDS011;12324;48.146;11.502;2023-04-28T07:27:41;5.93;;;2.28;;
24173;SDS011;12324;48.146;11.502;2023-04-28T07:30:08;2.78;;;2.03;;
24173;SDS011;12324;48.146;11.502;2023-04-28T07:32:52;3.47;;;1.83;;
24173;SDS011;12324;48.146;11.502;2023-04-28T07:35:19;6.45;;;2.20;;
24173;SDS011;12324;48.146;11.502;2023-04-28T07:37:46;3.38;;;2.05;;
24173;SDS011;12324;48.146;11.502;2023-04-28T07:40:13;3.95;;;2.05;;
24173;SDS011;12324;48.146;11.502;2023-04-28T07:42:41;6.63;;;2.65;;
24173;SDS011;12324;48.146;11.502;2023-04-28T07:45:08;6.95;;;2.00;;
24173;SDS011;12324;48.146;11.502;2023-04-28T07:47:35;5.00;;;2.13;;
24173;SDS011;12324;48.146;11.502;2023-04-28T07:50:03;4.35;;;2.35;;
24173;SDS011;12324;48.146;11.502;2023-04-28T07:52:31;7.65;;;2.75;;
24173;SDS011;12324;48.146;11.502;2023-04-28T07:54:59;5.38;;;2.25;;
24173;SDS011;12324;48.146;11.502;2023-04-28T07:57:26;7.97;;;2.88;;
24173;SDS011;12324;48.146;11.502;2023-04-28T07:59:54;8.55;;;3.80;;
24173;SDS011;12324;48.146;11.502;2023-04-28T08:02:21;5.53;;;2.80;;
24173;SDS011;12324;48.146;11.502;2023-04-28T08:04:48;3.90;;;2.25;;
24173;SDS011;12324;48.146;11.502;2023-04-28T08:07:16;4.68;;;2.40;;
24173;SDS011;12324;48.146;11.502;2023-04-28T08:09:43;6.43;;;2.70;;
24173;SDS011;12324;48.146;11.502;2023-04-28T08:12:13;7.82;;;2.58;;
24173;SDS011;12324;48.146;11.502;2023-04-28T08:14:40;5.97;;;2.80;;
24173;SDS011;12324;48.146;11.502;2023-04-28T08:17:07;4.80;;;2.55;;
24173;SDS011;12324;48.146;11.502;2023-04-28T08:19:35;8.15;;;3.00;;
24173;SDS011;12324;48.146;11.502;2023-04-28T08:22:02;5.65;;;3.03;;
24173;SDS011;12324;48.146;11.502;2023-04-28T08:24:32;4.32;;;2.40;;
24173;SDS011;12324;48.146;11.502;2023-04-28T08:27:00;4.88;;;2.65;;
24173;SDS011;12324;48.146;11.502;2023-04-28T08:29:31;5.97;;;2.47;;
24173;SDS011;12324;48.146;11.502;2023-04-28T08:31:58;7.03;;;3.05;;
24173;SDS011;12324;48.146;11.502;2023-04-28T08:34:27;5.65;;;2.58;;
24173;SDS011;12324;48.146;11.502;2023-04-28T08:36:54;7.95;;;3.20;;
24173;SDS011;12324;48.146;11.502;2023-04-28T08:39:21;6.55;;;2.30;;
24173;SDS011;12324;48.146;11.502;2023-04-28T08:41:48;6.32;;;2.50;;
24173;SDS011;12324;48.146;11.502;2023-04-28T08:44:16;8.13;;;3.10;;
24173;SDS011;12324;48.146;11.502;2023-04-28T08:46:45;7.10;;;2.78;;
24173;SDS011;12324;48.146;11.502;2023-04-28T08:49:16;6.43;;;2.40;;
24173;SDS011;12324;48.146;11.502;2023-04-28T08:51:45;5.50;;;2.65;;
24173;SDS011;12324;48.146;11.502;2023-04-28T08:54:15;6.60;;;2.92;;
24173;SDS011;12324;48.146;11.502;2023-04-28T08:56:51;8.73;;;2.63;;
24173;SDS011;12324;48.146;11.502;2023-04-28T08:59:19;6.20;;;2.53;;
24173;SDS011;12324;48.146;11.502;2023-04-28T09:01:49;6.40;;;2.45;;
24173;SDS011;12324;48.146;11.502;2023-04-28T09:04:17;6.35;;;2.60;;
24173;SDS011;12324;48.146;11.502;2023-04-28T09:06:45;6.60;;;2.60;;
24173;SDS011;12324;48.146;11.502;2023-04-28T09:09:25;9.68;;;3.67;;
24173;SDS011;12324;48.146;11.502;2023-04-28T09:14:25;6.22;;;2.42;;
24173;SDS011;12324;48.146;11.502;2023-04-28T09:16:52;4.22;;;2.40;;
24173;SDS011;12324;48.146;11.502;2023-04-28T09:19:20;5.53;;;2.38;;
24173;SDS011;12324;48.146;11.502;2023-04-28T09:21:48;4.55;;;1.98;;
24173;SDS011;12324;48.146;11.502;2023-04-28T09:24:28;4.75;;;2.33;;
24173;SDS011;12324;48.146;11.502;2023-04-28T09:26:57;6.00;;;2.33;;
24173;SDS011;12324;48.146;11.502;2023-04-28T09:29:24;6.60;;;2.88;;
24173;SDS011;12324;48.146;11.502;2023-04-28T09:31:52;3.03;;;1.88;;
24173;SDS011;12324;48.146;11.502;2023-04-28T09:34:20;5.35;;;2.08;;
24173;SDS011;12324;48.146;11.502;2023-04-28T09:36:47;4.28;;;2.20;;
24173;SDS011;12324;48.146;11.502;2023-04-28T09:39:14;5.95;;;1.95;;
24173;SDS011;12324;48.146;11.502;2023-04-28T09:41:54;6.65;;;2.15;;
24173;SDS011;12324;48.146;11.502;2023-04-28T09:44:20;6.93;;;2.28;;
24173;SDS011;12324;48.146;11.502;2023-04-28T09:46:48;6.93;;;2.40;;
24173;SDS011;12324;48.146;11.502;2023-04-28T09:49:15;7.65;;;2.65;;
24173;SDS011;12324;48.146;11.502;2023-04-28T09:51:42;6.20;;;2.33;;
24173;SDS011;12324;48.146;11.502;2023-04-28T09:54:09;5.35;;;2.55;;
24173;SDS011;12324;48.146;11.502;2023-04-28T09:56:36;5.93;;;2.50;;
24173;SDS011;12324;48.146;11.502;2023-04-28T09:59:06;6.05;;;2.35;;
24173;SDS011;12324;48.146;11.502;2023-04-28T10:01:36;5.15;;;2.05;;
24173;SDS011;12324;48.146;11.502;2023-04-28T10:04:06;3.70;;;2.30;;
24173;SDS011;12324;48.146;11.502;2023-04-28T10:06:34;5.93;;;2.00;;
24173;SDS011;12324;48.146;11.502;2023-04-28T10:09:04;3.42;;;2.00;;
24173;SDS011;12324;48.146;11.502;2023-04-28T10:11:31;6.78;;;2.22;;
24173;SDS011;12324;48.146;11.502;2023-04-28T10:13:59;11.25;;;5.30;;
24173;SDS011;12324;48.146;11.502;2023-04-28T10:16:26;4.32;;;1.88;;
24173;SDS011;12324;48.146;11.502;2023-04-28T10:18:56;5.88;;;1.98;;
24173;SDS011;12324;48.146;11.502;2023-04-28T10:21:23;2.85;;;1.80;;
24173;SDS011;12324;48.146;11.502;2023-04-28T10:23:59;6.25;;;1.83;;
24173;SDS011;12324;48.146;11.502;2023-04-28T10:27:29;11.90;;;2.50;;
24173;SDS011;12324;48.146;11.502;2023-04-28T10:29:54;2.92;;;1.70;;
24173;SDS011;12324;48.146;11.502;2023-04-28T10:32:45;4.55;;;1.85;;
24173;SDS011;12324;48.146;11.502;2023-04-28T10:35:56;3.88;;;2.00;;
24173;SDS011;12324;48.146;11.502;2023-04-28T10:38:11;3.40;;;1.52;;
24173;SDS011;12324;48.146;11.502;2023-04-28T10:40:47;4.80;;;2.38;;
24173;SDS011;12324;48.146;11.502;2023-04-28T10:46:05;4.05;;;2.10;;
24173;SDS011;12324;48.146;11.502;2023-04-28T10:56:14;4.93;;;2.03;;
24173;SDS011;12324;48.146;11.502;2023-04-28T10:58:45;4.53;;;1.83;;
24173;SDS011;12324;48.146;11.502;2023-04-28T11:06:20;4.55;;;2.00;;
24173;SDS011;12324;48.146;11.502;2023-04-28T11:08:52;1.77;;;1.35;;
24173;SDS011;12324;48.146;11.502;2023-04-28T11:11:24;3.58;;;1.70;;
24173;SDS011;12324;48.146;11.502;2023-04-28T11:13:53;3.60;;;1.52;;
24173;SDS011;12324;48.146;11.502;2023-04-28T11:16:22;2.80;;;1.50;;
24173;SDS011;12324;48.146;11.502;2023-04-28T11:18:55;3.65;;;1.60;;
24173;SDS011;12324;48.146;11.502;2023-04-28T11:21:24;4.38;;;2.08;;
24173;SDS011;12324;48.146;11.502;2023-04-28T11:23:53;3.95;;;1.60;;
24173;SDS011;12324;48.146;11.502;2023-04-28T11:26:20;3.63;;;1.73;;
24173;SDS011;12324;48.146;11.502;2023-04-28T11:28:49;5.13;;;1.60;;
24173;SDS011;12324;48.146;11.502;2023-04-28T11:31:20;5.20;;;1.80;;
24173;SDS011;12324;48.146;11.502;2023-04-28T11:33:53;8.40;;;2.22;;
24173;SDS011;12324;48.146;11.502;2023-04-28T11:36:34;6.90;;;2.22;;
24173;SDS011;12324;48.146;11.502;2023-04-28T11:39:04;2.92;;;1.70;;
24173;SDS011;12324;48.146;11.502;2023-04-28T11:41:33;2.63;;;1.77;;
24173;SDS011;12324;48.146;11.502;2023-04-28T11:44:11;2.10;;;1.52;;
24173;SDS011;12324;48.146;11.502;2023-04-28T11:46:46;6.40;;;1.80;;
24173;SDS011;12324;48.146;11.502;2023-04-28T11:49:24;7.80;;;1.85;;
24173;SDS011;12324;48.146;11.502;2023-04-28T11:51:54;7.20;;;1.77;;
24173;SDS011;12324;48.146;11.502;2023-04-28T11:54:23;4.85;;;1.90;;
24173;SDS011;12324;48.146;11.502;2023-04-28T11:56:52;3.80;;;1.63;;
24173;SDS011;12324;48.146;11.502;2023-04-28T11:59:24;3.67;;;1.60;;
24173;SDS011;12324;48.146;11.502;2023-04-28T12:02:01;2.92;;;1.92;;
24173;SDS011;12324;48.146;11.502;2023-04-28T12:04:33;2.38;;;1.63;;
24173;SDS011;12324;48.146;11.502;2023-04-28T12:07:04;5.07;;;1.73;;
24173;SDS011;12324;48.146;11.502;2023-04-28T12:09:36;2.55;;;1.88;;
24173;SDS011;12324;48.146;11.502;2023-04-28T12:12:04;4.53;;;2.50;;
24173;SDS011;12324;48.146;11.502;2023-04-28T12:14:33;4.88;;;2.35;;
24173;SDS011;12324;48.146;11.502;2023-04-28T12:17:30;5.22;;;2.30;;
24173;SDS011;12324;48.146;11.502;2023-04-28T12:20:03;4.70;;;1.70;;
24173;SDS011;12324;48.146;11.502;2023-04-28T12:22:46;2.78;;;1.80;;
24173;SDS011;12324;48.146;11.502;2023-04-28T12:25:15;2.80;;;1.40;;
24173;SDS011;12324;48.146;11.502;2023-04-28T12:27:58;3.17;;;1.50;;
24173;SDS011;12324;48.146;11.502;2023-04-28T12:30:31;1.95;;;1.58;;
24173;SDS011;12324;48.146;11.502;2023-04-28T12:33:22;1.73;;;1.42;;
24173;SDS011;12324;48.146;11.502;2023-04-28T12:35:50;3.90;;;1.92;;
24173;SDS011;12324;48.146;11.502;2023-04-28T12:38:19;2.83;;;1.80;;
24173;SDS011;12324;48.146;11.502;2023-04-28T12:40:46;5.97;;;2.03;;
24173;SDS011;12324;48.146;11.502;2023-04-28T12:43:13;2.30;;;1.60;;
24173;SDS011;12324;48.146;11.502;2023-04-28T12:45:40;4.15;;;1.90;;
24173;SDS011;12324;48.146;11.502;2023-04-28T12:48:07;4.05;;;2.30;;
24173;SDS011;12324;48.146;11.502;2023-04-28T12:50:33;2.05;;;1.42;;
24173;SDS011;12324;48.146;11.502;2023-04-28T12:53:00;3.88;;;2.13;;
24173;SDS011;12324;48.146;11.502;2023-04-28T12:55:27;4.07;;;1.35;;
24173;SDS011;12324;48.146;11.502;2023-04-28T12:57:54;4.00;;;1.67;;
24173;SDS011;12324;48.146;11.502;2023-04-28T13:00:21;5.05;;;1.98;;
24173;SDS011;12324;48.146;11.502;2023-04-28T13:02:50;3.80;;;1.70;;
24173;SDS011;12324;48.146;11.502;2023-04-28T13:05:18;6.30;;;1.95;;
24173;SDS011;12324;48.146;11.502;2023-04-28T13:07:45;5.03;;;1.90;;
24173;SDS011;12324;48.146;11.502;2023-04-28T13:10:13;5.00;;;1.73;;
24173;SDS011;12324;48.146;11.502;2023-04-28T13:12:41;8.43;;;1.75;;
24173;SDS011;12324;48.146;11.502;2023-04-28T13:15:08;3.83;;;1.90;;
24173;SDS011;12324;48.146;11.502;2023-04-28T13:17:35;2.72;;;1.27;;
24173;SDS011;12324;48.146;11.502;2023-04-28T13:20:03;4.15;;;1.75;;
24173;SDS011;12324;48.146;11.502;2023-04-28T13:22:30;4.20;;;1.40;;
24173;SDS011;12324;48.146;11.502;2023-04-28T13:24:58;5.57;;;1.80;;
24173;SDS011;12324;48.146;11.502;2023-04-28T13:27:25;3.03;;;1.30;;
24173;SDS011;12324;48.146;11.502;2023-04-28T13:29:55;1.92;;;1.45;;
24173;SDS011;12324;48.146;11.502;2023-04-28T13:32:24;1.52;;;1.17;;
24173;SDS011;12324;48.146;11.502;2023-04-28T13:34:53;4.13;;;2.00;;
24173;SDS011;12324;48.146;11.502;2023-04-28T13:37:21;2.83;;;1.25;;
24173;SDS011;12324;48.146;11.502;2023-04-28T13:39:49;5.57;;;1.60;;
24173;SDS011;12324;48.146;11.502;2023-04-28T13:42:18;2.00;;;1.17;;
24173;SDS011;12324;48.146;11.502;2023-04-28T13:44:45;2.10;;;1.10;;
24173;SDS011;12324;48.146;11.502;2023-04-28T13:47:14;7.18;;;1.40;;
24173;SDS011;12324;48.146;11.502;2023-04-28T13:49:41;1.77;;;0.95;;
24173;SDS011;12324;48.146;11.502;2023-04-28T13:52:10;2.47;;;1.10;;
24173;SDS011;12324;48.146;11.502;2023-04-28T13:54:37;3.08;;;1.10;;
24173;SDS011;12324;48.146;11.502;2023-04-28T13:57:04;3.10;;;1.23;;
24173;SDS011;12324;48.146;11.502;2023-04-28T13:59:32;5.45;;;0.98;;
24173;SDS011;12324;48.146;11.502;2023-04-28T14:01:59;1.25;;;0.80;;
24173;SDS011;12324;48.146;11.502;2023-04-28T14:04:27;2.53;;;1.30;;
24173;SDS011;12324;48.146;11.502;2023-04-28T14:06:54;1.02;;;0.80;;
24173;SDS011;12324;48.146;11.502;2023-04-28T14:09:22;2.10;;;1.00;;
24173;SDS011;12324;48.146;11.502;2023-04-28T14:11:49;2.78;;;1.10;;
24173;SDS011;12324;48.146;11.502;2023-04-28T14:14:16;1.08;;;0.98;;
24173;SDS011;12324;48.146;11.502;2023-04-28T14:16:43;1.63;;;0.70;;
24173;SDS011;12324;48.146;11.502;2023-04-28T14:19:10;1.15;;;0.90;;
24173;SDS011;12324;48.146;11.502;2023-04-28T14:21:42;2.70;;;0.80;;
24173;SDS011;12324;48.146;11.502;2023-04-28T14:24:09;1.83;;;1.05;;
24173;SDS011;12324;48.146;11.502;2023-04-28T14:26:36;0.93;;;0.65;;
24173;SDS011;12324;48.146;11.502;2023-04-28T14:29:03;1.05;;;0.80;;
24173;SDS011;12324;48.146;11.502;2023-04-28T14:31:30;2.63;;;1.02;;
24173;SDS011;12324;48.146;11.502;2023-04-28T14:33:58;1.40;;;0.98;;
24173;SDS011;12324;48.146;11.502;2023-04-28T14:36:25;1.13;;;0.93;;
24173;SDS011;12324;48.146;11.502;2023-04-28T14:38:52;4.38;;;1.30;;
24173;SDS011;12324;48.146;11.502;2023-04-28T14:41:19;1.60;;;1.20;;
24173;SDS011;12324;48.146;11.502;2023-04-28T14:43:46;1.10;;;0.98;;
24173;SDS011;12324;48.146;11.502;2023-04-28T14:46:14;0.98;;;0.98;;
24173;SDS011;12324;48.146;11.502;2023-04-28T14:48:44;1.85;;;1.17;;
24173;SDS011;12324;48.146;11.502;2023-04-28T14:51:11;2.22;;;1.15;;
24173;SDS011;12324;48.146;11.502;2023-04-28T14:53:39;2.35;;;1.20;;
24173;SDS011;12324;48.146;11.502;2023-04-28T14:56:07;2.00;;;1.30;;
24173;SDS011;12324;48.146;11.502;2023-04-28T14:58:45;2.10;;;1.10;;